Ana Sayfa
METAR-TAF:

METAR-TAF

Havaalanları :

Beverly, Massachusetts, Amerika Birleşik Devletleri

Enlem: 42-35-01N, Boylam: 070-54-59W, yükseklik: 33 m

Güncel hava durumu gözlemi

Rapor saat 23:53 UTC de 37 dakika önce yapıldı.
Rüzgar batıdan 10 kt
Sıcaklık 2°C
Nem 55%
Basınç 1008 hPa
Görüş mesafesi: 16.1 km
7000 ft yükseklikte çok bulutlu

METAR: KBVY 052353Z 26010KT 10SM OVC070 02/M06 A2978 RMK AO2 SLP082 T00221061 10067 20022 51039

Saat: 19:30 (00:30 UTC)


TAF: eksik

4.000'den fazla havaalanı için hava durumu gözlemleri ve tahminleri (METAR ve TAF raporları).

Kullanılabilir istasyonlar harita üzerinde sarı ve kırmızı noktalarla gösterilir.

İstasyonun adını görmek için fareyi noktanın üzerinde gezdirin.

Sonrasında hava gözlem ve tahminlerini görmek için tıklayın.

Haritayı değiştirmek için: yaklaştırmak için siyah artı işaretli yeşil düğmeye ve uzaklaştırmak için de eksi işaretli düğmeye hızla tıklayın; bitişik haritalar için yeşil okları kullanın.


METAR-TAF: